createdAt,value
2023-05-01T00:00:46.410Z,8.20
2023-05-01T00:01:47.246Z,8.13
2023-05-01T00:02:48.353Z,8.13
2023-05-01T00:03:48.896Z,8.13
2023-05-01T00:04:49.501Z,8.13
2023-05-01T00:05:50.366Z,8.17
2023-05-01T00:06:51.355Z,8.09
2023-05-01T00:07:51.801Z,7.96
2023-05-01T00:08:52.665Z,7.94
2023-05-01T00:09:53.628Z,7.94
2023-05-01T00:10:54.499Z,7.92
2023-05-01T00:11:55.371Z,7.91
2023-05-01T00:12:56.240Z,7.88
2023-05-01T00:13:57.108Z,7.89
2023-05-01T00:14:58.011Z,7.91
2023-05-01T00:15:58.943Z,7.92
2023-05-01T00:16:59.849Z,7.94
2023-05-01T00:18:00.772Z,7.92
2023-05-01T00:19:01.607Z,7.94
2023-05-01T00:20:02.486Z,7.96
2023-05-01T00:21:03.356Z,7.96
2023-05-01T00:22:04.242Z,8.00
2023-05-01T00:23:05.101Z,8.00
2023-05-01T00:24:05.976Z,8.00
2023-05-01T00:25:06.883Z,8.00
2023-05-01T00:26:07.741Z,8.06
2023-05-01T00:27:08.616Z,8.14
2023-05-01T00:28:09.489Z,8.18
2023-05-01T00:29:10.352Z,8.22
2023-05-01T00:30:11.239Z,8.27
2023-05-01T00:31:12.154Z,8.27
2023-05-01T00:32:13.124Z,8.27
2023-05-01T00:33:13.998Z,8.25
2023-05-01T00:34:14.883Z,8.28
2023-05-01T00:35:15.728Z,8.27
2023-05-01T00:36:16.601Z,8.31
2023-05-01T00:37:17.502Z,8.37
2023-05-01T00:38:18.351Z,8.37
2023-05-01T00:39:19.231Z,8.32
2023-05-01T00:40:20.106Z,8.32
2023-05-01T00:41:21.004Z,8.34
2023-05-01T00:42:21.861Z,8.37
2023-05-01T00:43:22.734Z,8.32
2023-05-01T00:44:23.627Z,8.31
2023-05-01T00:45:24.497Z,8.39
2023-05-01T00:46:25.490Z,8.40
2023-05-01T00:47:25.995Z,8.43
2023-05-01T00:48:26.854Z,8.42
2023-05-01T00:49:27.748Z,8.42
2023-05-01T00:50:28.627Z,8.42
2023-05-01T00:51:29.523Z,8.37
2023-05-01T00:52:30.373Z,8.34
2023-05-01T00:53:31.233Z,8.34
2023-05-01T00:54:32.163Z,8.34
2023-05-01T00:55:33.023Z,8.43
2023-05-01T00:56:33.887Z,8.43
2023-05-01T00:57:34.755Z,8.43
2023-05-01T00:58:35.615Z,8.45
2023-05-01T00:59:36.695Z,8.49
2023-05-01T01:00:37.141Z,8.45
2023-05-01T01:01:38.227Z,8.42
2023-05-01T01:02:38.689Z,8.45
2023-05-01T01:03:39.532Z,8.46
2023-05-01T01:04:40.430Z,8.43
2023-05-01T01:05:41.279Z,8.42
2023-05-01T01:06:42.302Z,8.42
2023-05-01T01:07:42.674Z,8.47
2023-05-01T01:08:43.551Z,8.45
2023-05-01T01:09:44.402Z,8.45
2023-05-01T01:10:45.271Z,8.55
2023-05-01T01:11:46.167Z,8.60
2023-05-01T01:12:47.048Z,8.61
2023-05-01T01:13:47.923Z,8.64
2023-05-01T01:14:48.795Z,8.70
2023-05-01T01:15:49.659Z,8.71
2023-05-01T01:16:50.600Z,8.71
2023-05-01T01:17:52.675Z,8.76
2023-05-01T01:18:52.140Z,8.68
2023-05-01T01:19:53.249Z,8.68
2023-05-01T01:20:53.716Z,8.75
2023-05-01T01:21:54.595Z,8.75
2023-05-01T01:22:55.492Z,8.78
2023-05-01T01:23:56.338Z,8.80
2023-05-01T01:24:57.222Z,8.85
2023-05-01T01:25:58.085Z,8.88
2023-05-01T01:26:58.977Z,8.91
2023-05-01T01:27:59.865Z,8.86
2023-05-01T01:29:00.740Z,8.93
2023-05-01T01:30:01.651Z,8.97
2023-05-01T01:31:02.518Z,8.91
2023-05-01T01:32:03.516Z,8.85
2023-05-01T01:33:04.386Z,8.86
2023-05-01T01:34:05.246Z,8.80
2023-05-01T01:35:06.156Z,8.75
2023-05-01T01:36:06.993Z,8.75
2023-05-01T01:37:07.858Z,8.76
2023-05-01T01:38:08.753Z,8.76
2023-05-01T01:39:09.614Z,8.78
2023-05-01T01:40:10.481Z,8.82
2023-05-01T01:41:11.354Z,8.85
2023-05-01T01:42:12.220Z,8.80
2023-05-01T01:43:13.114Z,8.86
2023-05-01T01:44:13.999Z,8.88
2023-05-01T01:45:14.851Z,8.82
2023-05-01T01:46:15.755Z,8.82
2023-05-01T01:47:16.760Z,8.82
2023-05-01T01:48:17.619Z,8.88
2023-05-01T01:49:20.263Z,8.86
2023-05-01T01:50:19.252Z,8.82
2023-05-01T01:51:20.196Z,8.79
2023-05-01T01:52:21.131Z,8.79
2023-05-01T01:53:22.056Z,8.79
2023-05-01T01:54:22.931Z,8.82
2023-05-01T01:55:23.798Z,8.82
2023-05-01T01:56:24.658Z,8.83
2023-05-01T01:57:25.973Z,8.83
2023-05-01T01:58:27.519Z,8.75
2023-05-01T01:59:27.011Z,8.75
2023-05-01T02:00:27.580Z,8.73
2023-05-01T02:01:28.173Z,8.76
2023-05-01T02:02:50.146Z,8.70
2023-05-01T02:03:44.086Z,8.64
2023-05-01T02:04:32.512Z,8.64
2023-05-01T02:05:33.936Z,8.65
2023-05-01T02:06:32.379Z,8.65
2023-05-01T02:07:34.301Z,8.63
2023-05-01T02:08:34.127Z,8.61
2023-05-01T02:09:35.028Z,8.61
2023-05-01T02:10:35.907Z,8.61
2023-05-01T02:11:37.813Z,8.58
2023-05-01T02:12:39.060Z,8.58
2023-05-01T02:13:40.283Z,8.60
2023-05-01T02:14:39.538Z,8.55
2023-05-01T02:15:41.705Z,8.57
2023-05-01T02:16:40.798Z,8.60
2023-05-01T02:17:42.213Z,8.57
2023-05-01T02:18:49.582Z,8.54
2023-05-01T02:19:53.627Z,8.54
2023-05-01T02:20:46.625Z,8.54
2023-05-01T02:23:58.227Z,8.49
2023-05-01T02:25:00.776Z,8.45
2023-05-01T02:25:58.674Z,8.47
2023-05-01T02:27:06.542Z,8.47
2023-05-01T02:28:02.886Z,8.47
2023-05-01T02:29:08.423Z,8.49
2023-05-01T02:30:02.731Z,8.47
2023-05-01T02:31:03.056Z,8.52
2023-05-01T02:32:03.694Z,8.54
2023-05-01T02:33:04.222Z,8.55
2023-05-01T02:34:04.721Z,8.52
2023-05-01T02:35:07.758Z,8.55
2023-05-01T02:36:06.125Z,8.58
2023-05-01T02:37:07.074Z,8.60
2023-05-01T02:38:22.747Z,8.54
2023-05-01T02:39:08.781Z,8.55
2023-05-01T02:40:24.958Z,8.49
2023-05-01T02:45:17.665Z,8.49
2023-05-01T02:46:18.251Z,8.57
2023-05-01T02:47:18.763Z,8.61
2023-05-01T02:48:19.293Z,8.58
2023-05-01T02:49:20.189Z,8.60
2023-05-01T02:50:21.040Z,8.52
2023-05-01T02:51:21.905Z,8.46
2023-05-01T02:52:22.782Z,8.54
2023-05-01T02:53:23.655Z,8.46
2023-05-01T02:54:24.554Z,8.40
2023-05-01T02:55:25.423Z,8.43
2023-05-01T02:56:26.318Z,8.43
2023-05-01T02:57:27.160Z,8.43
2023-05-01T02:58:28.028Z,8.46
2023-05-01T02:59:28.925Z,8.50
2023-05-01T03:00:29.781Z,8.45
2023-05-01T03:01:30.682Z,8.42
2023-05-01T03:02:31.519Z,8.43
2023-05-01T03:03:32.397Z,8.43
2023-05-01T03:04:33.336Z,8.43
2023-05-01T03:05:34.196Z,8.42
2023-05-01T03:06:35.107Z,8.42
2023-05-01T03:07:35.931Z,8.39
2023-05-01T03:08:36.800Z,8.39
2023-05-01T03:09:37.683Z,8.40
2023-05-01T03:10:38.573Z,8.45
2023-05-01T03:11:39.434Z,8.46
2023-05-01T03:12:40.301Z,8.52
2023-05-01T03:13:41.175Z,8.55
2023-05-01T03:14:42.072Z,8.57
2023-05-01T03:15:42.938Z,8.58
2023-05-01T03:16:43.903Z,8.67
2023-05-01T03:17:44.808Z,8.67
2023-05-01T03:18:45.691Z,8.68
2023-05-01T03:19:46.578Z,8.70
2023-05-01T03:20:47.425Z,8.71
2023-05-01T03:21:48.288Z,8.75
2023-05-01T03:22:49.158Z,8.75
2023-05-01T03:23:50.092Z,8.75
2023-05-01T03:24:50.941Z,8.71
2023-05-01T03:25:51.820Z,8.73
2023-05-01T03:26:52.704Z,8.73
2023-05-01T03:27:55.049Z,8.71
2023-05-01T03:28:54.198Z,8.73
2023-05-01T03:29:55.404Z,8.71
2023-05-01T03:30:55.939Z,8.70
2023-05-01T03:31:56.852Z,8.71
2023-05-01T03:32:57.836Z,8.75
2023-05-01T03:33:58.238Z,8.71
2023-05-01T03:34:59.201Z,8.71
2023-05-01T03:36:00.065Z,8.65
2023-05-01T03:37:00.935Z,8.64
2023-05-01T03:38:01.807Z,8.63
2023-05-01T03:39:02.682Z,8.63
2023-05-01T03:40:03.560Z,8.63
2023-05-01T03:41:04.416Z,8.64
2023-05-01T03:42:05.294Z,8.65
2023-05-01T03:43:06.177Z,8.65
2023-05-01T03:44:07.043Z,8.64
2023-05-01T03:45:07.908Z,8.65
2023-05-01T03:46:08.791Z,8.68
2023-05-01T03:47:09.651Z,8.63
2023-05-01T03:48:10.549Z,8.63
2023-05-01T03:49:11.439Z,8.63
2023-05-01T03:50:12.326Z,8.64
2023-05-01T03:51:13.172Z,8.63
2023-05-01T03:52:14.054Z,8.63
2023-05-01T03:53:14.932Z,8.65
2023-05-01T03:54:15.837Z,8.65
2023-05-01T03:55:16.733Z,8.67
2023-05-01T03:56:17.597Z,8.67
2023-05-01T03:57:18.474Z,8.71
2023-05-01T03:58:19.353Z,8.70
2023-05-01T03:59:20.232Z,8.75
2023-05-01T04:00:21.081Z,8.78
2023-05-01T04:01:21.973Z,8.79
2023-05-01T04:02:22.969Z,8.79
2023-05-01T04:03:23.434Z,8.78
2023-05-01T04:04:24.317Z,8.80
2023-05-01T04:05:25.224Z,8.82
2023-05-01T04:06:26.108Z,8.85
2023-05-01T04:07:26.969Z,8.83
2023-05-01T04:08:28.731Z,8.80
2023-05-01T04:09:28.739Z,8.85
2023-05-01T04:10:29.213Z,8.88
2023-05-01T04:11:30.163Z,8.86
2023-05-01T04:12:31.043Z,8.83
2023-05-01T04:13:31.880Z,8.83
2023-05-01T04:14:32.811Z,8.82
2023-05-01T04:15:33.691Z,8.88
2023-05-01T04:16:34.795Z,8.91
2023-05-01T04:17:35.255Z,8.94
2023-05-01T04:18:36.213Z,8.89
2023-05-01T04:19:37.058Z,8.89
2023-05-01T04:20:37.959Z,8.89
2023-05-01T04:21:38.857Z,8.93
2023-05-01T04:22:39.730Z,8.96
2023-05-01T04:23:40.617Z,8.94
2023-05-01T04:24:41.514Z,8.94
2023-05-01T04:25:42.390Z,8.94
2023-05-01T04:26:43.269Z,9.00
2023-05-01T04:27:44.193Z,9.00
2023-05-01T04:28:45.167Z,9.03
2023-05-01T04:29:45.994Z,9.04
2023-05-01T04:30:46.901Z,9.10
2023-05-01T04:31:47.812Z,9.15
2023-05-01T04:45:38.596Z,9.53
2023-05-01T04:46:39.473Z,9.55
2023-05-01T04:47:41.276Z,9.58
2023-05-01T04:48:41.167Z,9.60
2023-05-01T04:49:42.058Z,9.68
2023-05-01T04:50:42.914Z,9.75
2023-05-01T04:51:43.777Z,9.86
2023-05-01T04:52:44.658Z,9.95
2023-05-01T04:53:45.550Z,10.06
2023-05-01T04:54:46.442Z,10.16
2023-05-01T04:55:47.330Z,10.20
2023-05-01T04:56:48.179Z,10.28
2023-05-01T04:57:49.057Z,10.34
2023-05-01T04:58:49.999Z,10.34
2023-05-01T04:59:50.867Z,10.31
2023-05-01T05:00:51.767Z,10.31
2023-05-01T05:01:52.682Z,10.34
2023-05-01T05:02:53.658Z,10.29
2023-05-01T05:03:54.178Z,10.31
2023-05-01T05:04:54.584Z,10.38
2023-05-01T05:05:55.457Z,10.44
2023-05-01T05:06:56.317Z,10.54
2023-05-01T05:07:57.770Z,10.58
2023-05-01T05:08:58.190Z,10.58
2023-05-01T05:09:59.193Z,10.62
2023-05-01T05:11:00.056Z,10.80
2023-05-01T05:12:00.917Z,11.01
2023-05-01T05:13:01.792Z,11.26
2023-05-01T05:14:02.700Z,11.36
2023-05-01T05:15:03.543Z,11.46
2023-05-01T05:16:04.559Z,11.62
2023-05-01T05:17:04.957Z,11.69
2023-05-01T05:18:05.869Z,11.60
2023-05-01T05:19:06.750Z,11.60
2023-05-01T05:20:07.608Z,11.57
2023-05-01T05:21:08.475Z,11.70
2023-05-01T05:22:09.352Z,11.69
2023-05-01T05:23:10.775Z,11.64
2023-05-01T05:24:11.161Z,11.64
2023-05-01T05:25:12.033Z,11.66
2023-05-01T05:26:12.919Z,11.72
2023-05-01T05:27:13.781Z,11.51
2023-05-01T05:28:14.655Z,11.46
2023-05-01T05:29:15.524Z,11.54
2023-05-01T05:30:16.428Z,11.70
2023-05-01T05:31:17.301Z,11.90
2023-05-01T05:32:18.259Z,11.94
2023-05-01T05:33:19.267Z,12.03
2023-05-01T05:34:19.741Z,12.08
2023-05-01T05:35:20.637Z,12.31
2023-05-01T05:36:21.532Z,12.40
2023-05-01T05:37:22.397Z,12.55
2023-05-01T05:38:23.268Z,12.81
2023-05-01T05:39:24.134Z,13.01
2023-05-01T05:40:25.025Z,12.89
2023-05-01T05:41:25.891Z,12.85
2023-05-01T05:42:26.756Z,13.01
2023-05-01T05:43:28.217Z,13.10
2023-05-01T05:44:28.237Z,13.32
2023-05-01T05:45:29.132Z,13.50
2023-05-01T05:46:30.091Z,13.47
2023-05-01T05:47:32.043Z,13.31
2023-05-01T05:48:32.030Z,13.29
2023-05-01T05:49:32.930Z,13.17
2023-05-01T05:50:33.769Z,13.01
2023-05-01T05:51:34.675Z,12.66
2023-05-01T05:52:35.567Z,12.51
2023-05-01T05:53:36.438Z,12.48
2023-05-01T05:54:37.308Z,12.41
2023-05-01T05:55:38.182Z,12.30
2023-05-01T05:56:39.113Z,12.16
2023-05-01T05:57:39.996Z,12.07
2023-05-01T05:58:41.197Z,12.16
2023-05-01T05:59:41.551Z,12.26
2023-05-01T06:00:42.400Z,12.30
2023-05-01T06:01:43.312Z,12.01
2023-05-01T06:02:44.216Z,11.70
2023-05-01T06:03:45.135Z,11.77
2023-05-01T06:04:45.986Z,11.94
2023-05-01T06:05:46.916Z,12.18
2023-05-01T06:06:47.810Z,12.29
2023-05-01T06:07:48.695Z,12.29
2023-05-01T06:08:49.558Z,12.29
2023-05-01T06:09:50.462Z,12.13
2023-05-01T06:10:51.294Z,12.11
2023-05-01T06:11:52.173Z,12.26
2023-05-01T06:12:56.902Z,12.48
2023-05-01T06:13:54.839Z,12.54
2023-05-01T06:14:54.809Z,12.55
2023-05-01T06:15:55.740Z,12.63
2023-05-01T06:16:56.620Z,12.70
2023-05-01T06:17:57.522Z,12.52
2023-05-01T06:18:58.384Z,12.48
2023-05-01T06:19:59.451Z,12.56
2023-05-01T06:21:00.029Z,12.46
2023-05-01T06:22:00.963Z,12.56
2023-05-01T06:23:01.806Z,12.74
2023-05-01T06:24:02.696Z,12.89
2023-05-01T06:25:03.565Z,12.95
2023-05-01T06:26:04.439Z,12.80
2023-05-01T06:27:05.320Z,12.85
2023-05-01T06:28:06.230Z,12.69
2023-05-01T06:29:07.086Z,12.26
2023-05-01T06:30:07.971Z,12.11
2023-05-01T06:31:08.899Z,11.98
2023-05-01T06:32:10.407Z,11.87
2023-05-01T06:33:10.827Z,11.98
2023-05-01T06:34:11.264Z,12.13
2023-05-01T06:35:12.136Z,12.08
2023-05-01T06:36:13.019Z,12.30
2023-05-01T06:37:13.908Z,12.21
2023-05-01T06:38:14.778Z,12.16
2023-05-01T06:39:15.646Z,12.05
2023-05-01T06:40:16.524Z,11.97
2023-05-01T06:41:17.387Z,11.84
2023-05-01T06:42:18.269Z,12.04
2023-05-01T06:43:19.140Z,12.23
2023-05-01T06:44:20.021Z,12.22
2023-05-01T06:45:20.897Z,12.16
2023-05-01T06:46:21.831Z,12.26
2023-05-01T06:47:22.770Z,12.12
2023-05-01T06:48:23.640Z,12.23
2023-05-01T06:49:24.526Z,12.51
2023-05-01T06:50:25.406Z,12.80
2023-05-01T06:51:26.268Z,12.99
2023-05-01T06:52:27.153Z,13.01
2023-05-01T06:53:28.027Z,12.66
2023-05-01T06:54:28.914Z,12.69
2023-05-01T06:55:29.803Z,12.85
2023-05-01T06:56:30.665Z,12.96
2023-05-01T06:57:31.531Z,13.14
2023-05-01T06:58:32.393Z,12.98
2023-05-01T06:59:33.304Z,12.76
2023-05-01T07:00:34.202Z,12.34
2023-05-01T07:01:35.719Z,12.25
2023-05-01T07:02:35.812Z,12.52
2023-05-01T07:03:36.245Z,12.51
2023-05-01T07:04:37.129Z,12.49
2023-05-01T07:05:38.026Z,12.33
2023-05-01T07:06:38.907Z,12.26
2023-05-01T07:07:47.395Z,12.30
2023-05-01T07:08:41.578Z,12.55
2023-05-01T07:09:41.563Z,12.48
2023-05-01T07:10:42.507Z,12.46
2023-05-01T07:11:42.465Z,12.61
2023-05-01T07:12:43.349Z,12.55
2023-05-01T07:13:44.225Z,12.67
2023-05-01T07:14:45.093Z,12.89
2023-05-01T07:15:46.001Z,12.94
2023-05-01T07:16:47.848Z,13.04
2023-05-01T07:17:47.785Z,13.09
2023-05-01T07:18:48.662Z,13.12
2023-05-01T07:19:49.546Z,13.24
2023-05-01T07:20:50.477Z,13.10
2023-05-01T07:21:51.342Z,13.32
2023-05-01T07:22:52.222Z,13.29
2023-05-01T07:23:53.096Z,13.17
2023-05-01T07:24:53.966Z,13.09
2023-05-01T07:25:54.829Z,12.92
2023-05-01T07:26:55.730Z,13.14
2023-05-01T07:27:56.595Z,13.43
2023-05-01T07:28:57.459Z,13.32
2023-05-01T07:29:58.608Z,13.28
2023-05-01T07:30:59.131Z,13.28
2023-05-01T07:32:00.034Z,13.39
2023-05-01T07:33:00.980Z,13.46
2023-05-01T07:34:01.714Z,13.61
2023-05-01T07:35:02.570Z,13.51
2023-05-01T07:36:03.444Z,13.24
2023-05-01T07:37:04.325Z,13.13
2023-05-01T07:38:05.222Z,13.51
2023-05-01T07:39:06.118Z,13.91
2023-05-01T07:40:06.987Z,14.20
2023-05-01T07:41:07.875Z,14.24
2023-05-01T07:42:08.757Z,13.76
2023-05-01T07:43:09.651Z,13.53
2023-05-01T07:44:10.557Z,13.72
2023-05-01T07:45:11.419Z,13.61
2023-05-01T07:46:12.333Z,13.51
2023-05-01T07:47:13.189Z,13.59
2023-05-01T07:48:14.108Z,14.20
2023-05-01T07:49:14.953Z,14.53
2023-05-01T07:50:15.818Z,14.79
2023-05-01T07:51:16.722Z,15.13
2023-05-01T07:52:18.299Z,15.04
2023-05-01T07:53:18.175Z,15.19
2023-05-01T07:54:19.078Z,14.85
2023-05-01T07:55:19.948Z,14.49
2023-05-01T07:56:20.813Z,14.31
2023-05-01T07:57:21.816Z,14.35
2023-05-01T07:58:22.678Z,14.69
2023-05-01T07:59:23.564Z,15.07
2023-05-01T08:00:24.486Z,15.41
2023-05-01T08:01:25.390Z,15.59
2023-05-01T08:02:26.412Z,15.73
2023-05-01T08:03:27.149Z,16.41
2023-05-01T08:04:27.635Z,17.25
2023-05-01T08:05:28.531Z,17.42
2023-05-01T08:06:29.486Z,17.77
2023-05-01T08:07:30.360Z,18.41
2023-05-01T08:08:31.262Z,17.54
2023-05-01T08:09:32.135Z,16.81
2023-05-01T08:10:32.997Z,16.48
2023-05-01T08:11:33.815Z,16.81
2023-05-01T08:12:34.677Z,17.39
2023-05-01T08:13:35.549Z,17.80
2023-05-01T08:14:36.436Z,17.62
2023-05-01T08:15:37.319Z,17.46
2023-05-01T08:16:38.222Z,17.95
2023-05-01T08:17:39.141Z,18.04
2023-05-01T08:18:39.995Z,18.28
2023-05-01T08:19:40.845Z,17.53
2023-05-01T08:20:41.778Z,17.14
2023-05-01T08:21:42.622Z,17.27
2023-05-01T08:22:43.504Z,17.68
2023-05-01T08:23:44.372Z,18.16
2023-05-01T08:24:45.275Z,18.65
2023-05-01T08:25:46.161Z,19.07
2023-05-01T08:26:47.057Z,18.23
2023-05-01T08:27:47.946Z,17.25
2023-05-01T08:28:48.973Z,17.25
2023-05-01T08:29:49.847Z,17.91
2023-05-01T08:30:50.748Z,18.28
2023-05-01T08:31:51.790Z,18.89
2023-05-01T08:32:52.274Z,19.38
2023-05-01T08:33:53.156Z,18.89
2023-05-01T08:34:54.055Z,18.71
2023-05-01T08:35:54.888Z,18.68
2023-05-01T08:36:55.775Z,19.39
2023-05-01T08:37:56.705Z,20.35
2023-05-01T08:38:57.549Z,21.36
2023-05-01T08:39:58.562Z,21.98
2023-05-01T08:40:59.300Z,22.49
2023-05-01T08:41:59.652Z,23.26
2023-05-01T08:43:00.567Z,23.77
2023-05-01T08:44:01.460Z,23.90
2023-05-01T08:45:02.350Z,23.96
2023-05-01T08:46:03.380Z,23.87
2023-05-01T08:47:03.869Z,23.90
2023-05-01T08:48:04.299Z,23.86
2023-05-01T08:49:05.312Z,22.15
2023-05-01T08:50:06.183Z,20.90
2023-05-01T08:51:07.020Z,20.12
2023-05-01T08:52:07.963Z,19.60
2023-05-01T08:53:08.894Z,20.54
2023-05-01T08:54:09.738Z,21.31
2023-05-01T08:55:10.609Z,22.44
2023-05-01T08:56:11.507Z,23.00
2023-05-01T08:57:12.357Z,23.81
2023-05-01T08:58:13.301Z,24.83
2023-05-01T08:59:14.153Z,24.16
2023-05-01T09:00:15.017Z,24.21
2023-05-01T09:01:15.934Z,24.14
2023-05-01T09:02:16.789Z,24.15
2023-05-01T09:03:17.884Z,22.61
2023-05-01T09:04:18.488Z,21.66
2023-05-01T09:05:18.851Z,21.28
2023-05-01T09:06:19.841Z,21.43
2023-05-01T09:07:20.755Z,21.45
2023-05-01T09:08:21.616Z,20.58
2023-05-01T09:09:22.519Z,20.57
2023-05-01T09:10:23.376Z,20.40
2023-05-01T09:11:24.242Z,20.41
2023-05-01T09:12:25.108Z,20.48
2023-05-01T09:13:26.034Z,20.50
2023-05-01T09:14:26.935Z,21.06
2023-05-01T09:15:27.846Z,20.81
2023-05-01T09:16:28.791Z,20.88
2023-05-01T09:17:29.646Z,20.61
2023-05-01T09:18:30.513Z,20.61
2023-05-01T09:19:31.403Z,20.64
2023-05-01T09:20:32.246Z,19.97
2023-05-01T09:21:33.149Z,19.60
2023-05-01T09:22:34.013Z,19.60
2023-05-01T09:23:34.884Z,19.76
2023-05-01T09:24:35.808Z,19.71
2023-05-01T09:25:36.651Z,19.62
2023-05-01T09:26:37.533Z,19.50
2023-05-01T09:27:38.414Z,19.61
2023-05-01T09:28:39.283Z,19.61
2023-05-01T09:29:40.168Z,19.23
2023-05-01T09:30:41.129Z,18.46
2023-05-01T09:31:42.001Z,18.21
2023-05-01T09:32:43.375Z,18.56
2023-05-01T09:33:43.748Z,18.59
2023-05-01T09:34:44.670Z,19.17
2023-05-01T09:35:45.566Z,19.64
2023-05-01T09:36:46.443Z,20.16
2023-05-01T09:37:48.090Z,20.90
2023-05-01T09:38:47.961Z,20.31
2023-05-01T09:39:49.188Z,20.38
2023-05-01T09:40:49.546Z,19.97
2023-05-01T09:41:50.420Z,20.01
2023-05-01T09:42:51.300Z,20.90
2023-05-01T09:43:52.177Z,21.22
2023-05-01T09:44:53.082Z,22.88
2023-05-01T09:45:53.975Z,24.39
2023-05-01T09:46:54.838Z,24.12
2023-05-01T09:47:55.747Z,25.04
2023-05-01T09:48:56.679Z,25.64
2023-05-01T09:49:57.972Z,25.91
2023-05-01T09:50:58.047Z,25.83
2023-05-01T09:51:58.926Z,26.16
2023-05-01T09:52:59.807Z,26.59
2023-05-01T09:54:00.695Z,26.68
2023-05-01T09:55:01.568Z,26.56
2023-05-01T09:56:02.476Z,26.64
2023-05-01T09:57:03.352Z,26.94
2023-05-01T09:58:04.640Z,26.78
2023-05-01T09:59:04.991Z,27.35
2023-05-01T10:00:05.926Z,27.53
2023-05-01T10:01:06.833Z,27.11
2023-05-01T10:02:07.774Z,26.83
2023-05-01T10:03:08.928Z,27.20
2023-05-01T10:04:09.421Z,27.35
2023-05-01T10:05:10.277Z,27.35
2023-05-01T10:06:11.180Z,27.43
2023-05-01T10:07:12.058Z,27.80
2023-05-01T10:08:13.068Z,28.27
2023-05-01T10:09:13.903Z,28.83
2023-05-01T10:10:14.784Z,27.58
2023-05-01T10:11:15.654Z,27.49
2023-05-01T10:12:16.546Z,27.53
2023-05-01T10:13:17.446Z,26.56
2023-05-01T10:14:18.339Z,26.54
2023-05-01T10:16:20.073Z,27.58
2023-05-01T10:17:21.165Z,27.66
2023-05-01T10:18:21.773Z,28.23
2023-05-01T10:19:22.332Z,28.65
2023-05-01T10:20:23.181Z,28.60
2023-05-01T10:21:24.066Z,28.92
2023-05-01T10:22:25.069Z,29.32
2023-05-01T10:23:25.889Z,29.95
2023-05-01T10:24:26.794Z,30.61
2023-05-01T10:25:27.650Z,30.82
2023-05-01T10:26:28.530Z,31.16
2023-05-01T10:27:29.378Z,29.63
2023-05-01T10:28:30.271Z,29.00
2023-05-01T10:29:31.126Z,27.12
2023-05-01T10:30:31.997Z,25.69
2023-05-01T10:31:33.178Z,24.45
2023-05-01T10:32:33.808Z,24.18
2023-05-01T10:33:34.677Z,25.35
2023-05-01T10:34:35.535Z,26.50
2023-05-01T10:35:36.440Z,27.25
2023-05-01T10:36:37.309Z,28.23
2023-05-01T10:37:38.215Z,29.03
2023-05-01T10:38:39.222Z,29.86
2023-05-01T10:39:39.585Z,29.92
2023-05-01T10:40:40.517Z,29.42
2023-05-01T10:41:41.403Z,29.05
2023-05-01T10:42:42.258Z,28.95
2023-05-01T10:43:43.183Z,28.95
2023-05-01T10:44:44.102Z,28.36
2023-05-01T10:45:44.946Z,28.67
2023-05-01T10:46:45.942Z,28.89
2023-05-01T10:47:46.427Z,28.61
2023-05-01T10:48:47.276Z,27.84
2023-05-01T10:49:48.164Z,26.71
2023-05-01T10:50:49.128Z,25.71
2023-05-01T10:51:50.013Z,24.93
2023-05-01T10:52:50.850Z,25.54
2023-05-01T10:53:51.739Z,26.34
2023-05-01T10:54:52.654Z,26.56
2023-05-01T10:55:53.598Z,25.98
2023-05-01T10:56:54.466Z,25.76
2023-05-01T10:57:55.332Z,24.24
2023-05-01T10:58:56.228Z,23.79
2023-05-01T10:59:57.121Z,24.39
2023-05-01T11:00:58.019Z,24.98
2023-05-01T11:01:58.929Z,25.35
2023-05-01T11:02:59.825Z,25.91
2023-05-01T11:04:00.716Z,26.60
2023-05-01T11:05:01.753Z,26.88
2023-05-01T11:06:02.319Z,26.71
2023-05-01T11:07:02.816Z,25.61
2023-05-01T11:08:03.676Z,25.74
2023-05-01T11:09:04.604Z,26.72
2023-05-01T11:10:05.448Z,26.69
2023-05-01T11:11:06.332Z,26.72
2023-05-01T11:12:07.264Z,26.28
2023-05-01T11:13:08.094Z,26.68
2023-05-01T11:14:09.037Z,25.74
2023-05-01T11:15:09.900Z,25.39
2023-05-01T11:16:10.846Z,25.31
2023-05-01T11:17:11.743Z,26.13
2023-05-01T11:18:12.706Z,26.61
2023-05-01T11:19:13.563Z,26.72
2023-05-01T11:20:14.486Z,26.75
2023-05-01T11:21:15.365Z,26.90
2023-05-01T11:22:16.245Z,27.33
2023-05-01T11:23:17.121Z,27.53
2023-05-01T11:24:18.014Z,27.42
2023-05-01T11:25:18.888Z,27.45
2023-05-01T11:26:19.769Z,27.78
2023-05-01T11:27:20.650Z,28.27
2023-05-01T11:28:21.586Z,28.57
2023-05-01T11:29:22.424Z,28.45
2023-05-01T11:30:23.308Z,27.61
2023-05-01T11:31:24.284Z,27.50
2023-05-01T11:32:25.278Z,27.59
2023-05-01T11:33:25.667Z,27.87
2023-05-01T11:34:26.532Z,27.98
2023-05-01T11:35:27.431Z,27.83
2023-05-01T11:36:28.399Z,28.27
2023-05-01T11:37:29.213Z,28.87
2023-05-01T11:38:30.100Z,28.54
2023-05-01T11:39:31.109Z,29.12
2023-05-01T11:40:32.008Z,28.67
2023-05-01T11:41:32.883Z,28.40
2023-05-01T11:42:33.840Z,27.62
2023-05-01T11:43:34.278Z,26.93
2023-05-01T11:44:35.198Z,26.27
2023-05-01T11:45:36.167Z,25.85
2023-05-01T11:46:36.690Z,25.12
2023-05-01T11:47:37.619Z,24.34
2023-05-01T11:48:38.530Z,24.00
2023-05-01T11:49:39.426Z,23.89
2023-05-01T11:50:40.414Z,24.42
2023-05-01T11:51:41.318Z,24.98
2023-05-01T11:52:42.156Z,24.98
2023-05-01T11:53:43.036Z,25.08
2023-05-01T11:54:43.932Z,24.84
2023-05-01T11:55:44.962Z,24.87
2023-05-01T11:56:45.314Z,24.83
2023-05-01T11:57:46.176Z,24.79
2023-05-01T11:58:47.056Z,24.37
2023-05-01T11:59:47.910Z,23.99
2023-05-01T12:00:48.787Z,24.27
2023-05-01T12:01:49.740Z,24.59
2023-05-01T12:02:50.746Z,25.17
2023-05-01T12:03:51.161Z,25.51
2023-05-01T12:04:52.077Z,25.36
2023-05-01T12:05:52.968Z,25.51
2023-05-01T12:06:53.975Z,25.79
2023-05-01T12:07:54.345Z,26.12
2023-05-01T12:08:55.898Z,26.09
2023-05-01T12:09:55.757Z,25.76
2023-05-01T12:10:56.636Z,25.74
2023-05-01T12:11:57.514Z,26.19
2023-05-01T12:12:58.373Z,25.86
2023-05-01T12:13:59.254Z,25.69
2023-05-01T12:15:00.446Z,24.97
2023-05-01T12:16:00.924Z,24.33
2023-05-01T12:17:01.841Z,23.77
2023-05-01T12:18:02.828Z,24.05
2023-05-01T12:19:03.699Z,24.23
2023-05-01T12:20:04.548Z,24.52
2023-05-01T12:21:05.417Z,23.71
2023-05-01T12:22:06.343Z,23.72
2023-05-01T12:23:07.204Z,23.86
2023-05-01T12:24:08.120Z,24.08
2023-05-01T12:25:08.993Z,24.00
2023-05-01T12:26:09.871Z,24.08
2023-05-01T12:27:10.769Z,24.18
2023-05-01T12:28:11.630Z,24.14
2023-05-01T12:29:12.519Z,23.90
2023-05-01T12:30:13.401Z,23.52
2023-05-01T12:31:14.299Z,23.32
2023-05-01T12:32:15.137Z,23.31
2023-05-01T12:33:16.075Z,22.88
2023-05-01T12:34:16.986Z,22.30
2023-05-01T12:35:17.858Z,21.63
2023-05-01T12:36:18.710Z,21.68
2023-05-01T12:37:19.739Z,21.98
2023-05-01T12:38:20.588Z,22.23
2023-05-01T12:39:21.458Z,21.81
2023-05-01T12:40:22.375Z,20.96
2023-05-01T12:41:23.222Z,20.97
2023-05-01T12:42:24.121Z,21.13
2023-05-01T12:43:25.017Z,21.36
2023-05-01T12:44:26.003Z,21.33
2023-05-01T12:45:26.833Z,21.30
2023-05-01T12:46:27.849Z,21.31
2023-05-01T12:47:28.261Z,21.53
2023-05-01T12:48:29.142Z,21.74
2023-05-01T12:49:30.038Z,22.14
2023-05-01T12:50:30.896Z,22.46
2023-05-01T12:51:31.821Z,22.39
2023-05-01T12:52:32.705Z,22.49
2023-05-01T12:53:33.583Z,22.39
2023-05-01T12:54:34.446Z,22.64
2023-05-01T12:55:35.325Z,22.72
2023-05-01T12:56:36.202Z,22.75
2023-05-01T12:57:37.073Z,23.06
2023-05-01T12:58:38.342Z,23.00
2023-05-01T12:59:38.877Z,23.09
2023-05-01T13:00:39.748Z,23.31
2023-05-01T13:01:40.701Z,23.09
2023-05-01T13:02:41.614Z,22.69
2023-05-01T13:03:42.807Z,22.38
2023-05-01T13:04:43.251Z,22.56
2023-05-01T13:05:44.134Z,22.48
2023-05-01T13:06:45.023Z,22.46
2023-05-01T13:07:45.900Z,22.52
2023-05-01T13:08:46.819Z,22.91
2023-05-01T13:09:47.661Z,23.21
2023-05-01T13:10:48.521Z,23.45
2023-05-01T13:11:49.417Z,23.34
2023-05-01T13:12:50.290Z,23.25
2023-05-01T13:13:51.174Z,23.21
2023-05-01T13:14:52.050Z,23.42
2023-05-01T13:15:52.993Z,23.62
2023-05-01T13:16:53.955Z,23.82
2023-05-01T13:17:54.901Z,24.09
2023-05-01T13:18:55.846Z,24.14
2023-05-01T13:19:57.038Z,23.79
2023-05-01T13:20:57.575Z,23.59
2023-05-01T13:21:58.480Z,23.56
2023-05-01T13:22:59.351Z,23.59
2023-05-01T13:24:00.264Z,23.07
2023-05-01T13:25:01.123Z,23.16
2023-05-01T13:26:02.057Z,23.09
2023-05-01T13:27:05.047Z,23.21
2023-05-01T13:28:03.708Z,23.31
2023-05-01T13:29:04.576Z,23.23
2023-05-01T13:30:05.513Z,23.41
2023-05-01T13:31:06.354Z,23.52
2023-05-01T13:32:07.275Z,23.50
2023-05-01T13:33:07.985Z,23.50